sensor_id;sensor_type;location;lat;lon;timestamp;P1;durP1;ratioP1;P2;durP2;ratioP2
61915;SDS011;47868;51.326;6.550;2023-03-01T00:00:51;12.27;;;8.43;;
61915;SDS011;47868;51.326;6.550;2023-03-01T00:03:17;12.60;;;9.03;;
61915;SDS011;47868;51.326;6.550;2023-03-01T00:05:46;10.03;;;8.30;;
61915;SDS011;47868;51.326;6.550;2023-03-01T00:08:12;10.37;;;7.93;;
61915;SDS011;47868;51.326;6.550;2023-03-01T00:10:38;10.90;;;8.53;;
61915;SDS011;47868;51.326;6.550;2023-03-01T00:13:04;13.57;;;8.43;;
61915;SDS011;47868;51.326;6.550;2023-03-01T00:15:31;10.97;;;8.03;;
61915;SDS011;47868;51.326;6.550;2023-03-01T00:17:57;14.20;;;8.90;;
61915;SDS011;47868;51.326;6.550;2023-03-01T00:20:23;11.80;;;8.37;;
61915;SDS011;47868;51.326;6.550;2023-03-01T00:22:49;11.80;;;8.50;;
61915;SDS011;47868;51.326;6.550;2023-03-01T00:25:15;13.20;;;9.10;;
61915;SDS011;47868;51.326;6.550;2023-03-01T00:27:41;13.00;;;8.37;;
61915;SDS011;47868;51.326;6.550;2023-03-01T00:30:08;11.33;;;8.83;;
61915;SDS011;47868;51.326;6.550;2023-03-01T00:32:35;13.20;;;8.67;;
61915;SDS011;47868;51.326;6.550;2023-03-01T00:35:01;12.63;;;8.30;;
61915;SDS011;47868;51.326;6.550;2023-03-01T00:37:26;13.67;;;9.00;;
61915;SDS011;47868;51.326;6.550;2023-03-01T00:39:52;13.33;;;8.17;;
61915;SDS011;47868;51.326;6.550;2023-03-01T00:42:18;14.33;;;8.93;;
61915;SDS011;47868;51.326;6.550;2023-03-01T00:44:44;12.47;;;9.00;;
61915;SDS011;47868;51.326;6.550;2023-03-01T00:47:10;13.67;;;8.03;;
61915;SDS011;47868;51.326;6.550;2023-03-01T00:49:36;13.63;;;9.20;;
61915;SDS011;47868;51.326;6.550;2023-03-01T00:52:02;10.00;;;8.40;;
61915;SDS011;47868;51.326;6.550;2023-03-01T00:54:28;11.03;;;8.87;;
61915;SDS011;47868;51.326;6.550;2023-03-01T00:56:54;13.57;;;9.00;;
61915;SDS011;47868;51.326;6.550;2023-03-01T00:59:20;11.77;;;7.57;;
61915;SDS011;47868;51.326;6.550;2023-03-01T01:01:46;12.50;;;8.67;;
61915;SDS011;47868;51.326;6.550;2023-03-01T01:04:12;13.70;;;8.90;;
61915;SDS011;47868;51.326;6.550;2023-03-01T01:06:40;10.20;;;7.93;;
61915;SDS011;47868;51.326;6.550;2023-03-01T01:09:10;11.57;;;9.27;;
61915;SDS011;47868;51.326;6.550;2023-03-01T01:11:42;10.70;;;8.67;;
61915;SDS011;47868;51.326;6.550;2023-03-01T01:14:08;11.53;;;8.27;;
61915;SDS011;47868;51.326;6.550;2023-03-01T01:16:34;11.40;;;9.00;;
61915;SDS011;47868;51.326;6.550;2023-03-01T01:19:00;12.33;;;8.67;;
61915;SDS011;47868;51.326;6.550;2023-03-01T01:21:26;11.23;;;8.47;;
61915;SDS011;47868;51.326;6.550;2023-03-01T01:23:52;12.53;;;8.60;;
61915;SDS011;47868;51.326;6.550;2023-03-01T01:26:19;12.87;;;9.17;;
61915;SDS011;47868;51.326;6.550;2023-03-01T01:28:46;10.83;;;8.67;;
61915;SDS011;47868;51.326;6.550;2023-03-01T01:31:12;13.53;;;9.23;;
61915;SDS011;47868;51.326;6.550;2023-03-01T01:33:38;11.80;;;8.90;;
61915;SDS011;47868;51.326;6.550;2023-03-01T01:36:05;12.87;;;9.23;;
61915;SDS011;47868;51.326;6.550;2023-03-01T01:38:31;11.23;;;8.83;;
61915;SDS011;47868;51.326;6.550;2023-03-01T01:40:57;15.60;;;9.07;;
61915;SDS011;47868;51.326;6.550;2023-03-01T01:43:25;14.93;;;9.40;;
61915;SDS011;47868;51.326;6.550;2023-03-01T01:45:52;13.63;;;9.13;;
61915;SDS011;47868;51.326;6.550;2023-03-01T01:48:21;10.47;;;8.70;;
61915;SDS011;47868;51.326;6.550;2023-03-01T01:50:51;13.33;;;9.23;;
61915;SDS011;47868;51.326;6.550;2023-03-01T01:53:19;14.40;;;9.80;;
61915;SDS011;47868;51.326;6.550;2023-03-01T01:55:47;15.40;;;9.73;;
61915;SDS011;47868;51.326;6.550;2023-03-01T01:58:15;12.03;;;9.40;;
61915;SDS011;47868;51.326;6.550;2023-03-01T02:00:43;15.63;;;10.30;;
61915;SDS011;47868;51.326;6.550;2023-03-01T02:03:10;13.80;;;9.70;;
61915;SDS011;47868;51.326;6.550;2023-03-01T02:05:45;12.30;;;9.57;;
61915;SDS011;47868;51.326;6.550;2023-03-01T02:08:13;14.00;;;9.83;;
61915;SDS011;47868;51.326;6.550;2023-03-01T02:10:39;12.17;;;9.77;;
61915;SDS011;47868;51.326;6.550;2023-03-01T02:13:06;17.73;;;9.73;;
61915;SDS011;47868;51.326;6.550;2023-03-01T02:15:36;13.70;;;10.00;;
61915;SDS011;47868;51.326;6.550;2023-03-01T02:18:05;15.23;;;10.27;;
61915;SDS011;47868;51.326;6.550;2023-03-01T02:20:38;18.73;;;9.73;;
61915;SDS011;47868;51.326;6.550;2023-03-01T02:23:06;12.33;;;9.50;;
61915;SDS011;47868;51.326;6.550;2023-03-01T02:25:39;14.77;;;9.13;;
61915;SDS011;47868;51.326;6.550;2023-03-01T02:30:44;14.67;;;9.33;;
61915;SDS011;47868;51.326;6.550;2023-03-01T02:33:30;12.93;;;10.10;;
61915;SDS011;47868;51.326;6.550;2023-03-01T02:35:57;12.17;;;9.97;;
61915;SDS011;47868;51.326;6.550;2023-03-01T02:38:24;14.63;;;9.77;;
61915;SDS011;47868;51.326;6.550;2023-03-01T02:40:50;12.57;;;9.90;;
61915;SDS011;47868;51.326;6.550;2023-03-01T02:43:17;14.23;;;9.50;;
61915;SDS011;47868;51.326;6.550;2023-03-01T02:45:50;11.87;;;9.83;;
61915;SDS011;47868;51.326;6.550;2023-03-01T02:48:18;15.03;;;10.40;;
61915;SDS011;47868;51.326;6.550;2023-03-01T02:51:06;15.53;;;9.40;;
61915;SDS011;47868;51.326;6.550;2023-03-01T02:55:56;13.43;;;10.30;;
61915;SDS011;47868;51.326;6.550;2023-03-01T02:58:22;11.30;;;9.57;;
61915;SDS011;47868;51.326;6.550;2023-03-01T03:00:48;13.50;;;9.47;;
61915;SDS011;47868;51.326;6.550;2023-03-01T03:03:16;14.00;;;10.03;;
61915;SDS011;47868;51.326;6.550;2023-03-01T03:05:43;13.73;;;9.97;;
61915;SDS011;47868;51.326;6.550;2023-03-01T03:08:09;13.53;;;10.03;;
61915;SDS011;47868;51.326;6.550;2023-03-01T03:10:37;23.67;;;11.10;;
61915;SDS011;47868;51.326;6.550;2023-03-01T03:13:06;18.13;;;10.17;;
61915;SDS011;47868;51.326;6.550;2023-03-01T03:15:32;17.60;;;8.90;;
61915;SDS011;47868;51.326;6.550;2023-03-01T03:18:01;13.83;;;9.80;;
61915;SDS011;47868;51.326;6.550;2023-03-01T03:20:28;14.20;;;10.53;;
61915;SDS011;47868;51.326;6.550;2023-03-01T03:22:54;14.97;;;9.70;;
61915;SDS011;47868;51.326;6.550;2023-03-01T03:25:21;17.73;;;10.17;;
61915;SDS011;47868;51.326;6.550;2023-03-01T03:27:48;13.47;;;9.87;;
61915;SDS011;47868;51.326;6.550;2023-03-01T03:30:18;15.87;;;9.83;;
61915;SDS011;47868;51.326;6.550;2023-03-01T03:32:45;12.10;;;10.07;;
61915;SDS011;47868;51.326;6.550;2023-03-01T03:35:21;12.37;;;9.90;;
61915;SDS011;47868;51.326;6.550;2023-03-01T03:37:47;15.30;;;10.07;;
61915;SDS011;47868;51.326;6.550;2023-03-01T03:40:37;12.57;;;9.53;;
61915;SDS011;47868;51.326;6.550;2023-03-01T03:43:04;14.70;;;10.33;;
61915;SDS011;47868;51.326;6.550;2023-03-01T03:45:30;13.70;;;9.23;;
61915;SDS011;47868;51.326;6.550;2023-03-01T03:47:58;12.13;;;10.13;;
61915;SDS011;47868;51.326;6.550;2023-03-01T03:50:24;15.80;;;9.67;;
61915;SDS011;47868;51.326;6.550;2023-03-01T03:52:50;13.77;;;10.30;;
61915;SDS011;47868;51.326;6.550;2023-03-01T03:55:16;13.00;;;10.30;;
61915;SDS011;47868;51.326;6.550;2023-03-01T03:57:44;14.37;;;10.57;;
61915;SDS011;47868;51.326;6.550;2023-03-01T04:00:16;11.37;;;9.73;;
61915;SDS011;47868;51.326;6.550;2023-03-01T04:02:43;17.00;;;10.87;;
61915;SDS011;47868;51.326;6.550;2023-03-01T04:05:10;12.63;;;9.87;;
61915;SDS011;47868;51.326;6.550;2023-03-01T04:07:37;13.40;;;10.00;;
61915;SDS011;47868;51.326;6.550;2023-03-01T04:10:07;14.70;;;10.30;;
61915;SDS011;47868;51.326;6.550;2023-03-01T04:12:34;16.30;;;10.67;;
61915;SDS011;47868;51.326;6.550;2023-03-01T04:15:01;12.50;;;9.70;;
61915;SDS011;47868;51.326;6.550;2023-03-01T04:17:37;15.30;;;10.40;;
61915;SDS011;47868;51.326;6.550;2023-03-01T04:20:04;14.33;;;10.30;;
61915;SDS011;47868;51.326;6.550;2023-03-01T04:22:30;16.10;;;10.60;;
61915;SDS011;47868;51.326;6.550;2023-03-01T04:24:56;12.80;;;10.23;;
61915;SDS011;47868;51.326;6.550;2023-03-01T04:27:23;13.50;;;10.30;;
61915;SDS011;47868;51.326;6.550;2023-03-01T04:29:49;14.17;;;10.87;;
61915;SDS011;47868;51.326;6.550;2023-03-01T04:32:15;15.60;;;10.40;;
61915;SDS011;47868;51.326;6.550;2023-03-01T04:34:41;14.67;;;10.63;;
61915;SDS011;47868;51.326;6.550;2023-03-01T04:37:07;12.30;;;10.40;;
61915;SDS011;47868;51.326;6.550;2023-03-01T04:39:33;11.63;;;9.47;;
61915;SDS011;47868;51.326;6.550;2023-03-01T04:42:10;15.43;;;9.90;;
61915;SDS011;47868;51.326;6.550;2023-03-01T04:44:36;14.40;;;10.07;;
61915;SDS011;47868;51.326;6.550;2023-03-01T04:47:02;14.83;;;10.23;;
61915;SDS011;47868;51.326;6.550;2023-03-01T04:49:28;11.27;;;9.90;;
61915;SDS011;47868;51.326;6.550;2023-03-01T04:51:54;15.27;;;11.17;;
61915;SDS011;47868;51.326;6.550;2023-03-01T04:54:23;15.77;;;10.90;;
61915;SDS011;47868;51.326;6.550;2023-03-01T04:56:49;15.90;;;10.60;;
61915;SDS011;47868;51.326;6.550;2023-03-01T04:59:15;17.17;;;10.60;;
61915;SDS011;47868;51.326;6.550;2023-03-01T05:01:41;15.13;;;11.43;;
61915;SDS011;47868;51.326;6.550;2023-03-01T05:04:07;14.27;;;11.07;;
61915;SDS011;47868;51.326;6.550;2023-03-01T05:06:38;15.87;;;10.77;;
61915;SDS011;47868;51.326;6.550;2023-03-01T05:09:04;17.33;;;11.83;;
61915;SDS011;47868;51.326;6.550;2023-03-01T05:11:30;13.13;;;11.17;;
61915;SDS011;47868;51.326;6.550;2023-03-01T05:14:00;15.03;;;11.50;;
61915;SDS011;47868;51.326;6.550;2023-03-01T05:16:26;16.03;;;10.93;;
61915;SDS011;47868;51.326;6.550;2023-03-01T05:18:52;16.07;;;11.20;;
61915;SDS011;47868;51.326;6.550;2023-03-01T05:21:20;15.63;;;11.10;;
61915;SDS011;47868;51.326;6.550;2023-03-01T05:23:46;15.17;;;10.90;;
61915;SDS011;47868;51.326;6.550;2023-03-01T05:26:13;15.13;;;10.57;;
61915;SDS011;47868;51.326;6.550;2023-03-01T05:28:39;17.47;;;10.83;;
61915;SDS011;47868;51.326;6.550;2023-03-01T05:31:05;15.77;;;12.03;;
61915;SDS011;47868;51.326;6.550;2023-03-01T05:33:35;14.90;;;10.80;;
61915;SDS011;47868;51.326;6.550;2023-03-01T05:36:01;16.57;;;11.00;;
61915;SDS011;47868;51.326;6.550;2023-03-01T05:38:28;21.50;;;11.33;;
61915;SDS011;47868;51.326;6.550;2023-03-01T05:40:54;16.93;;;11.93;;
61915;SDS011;47868;51.326;6.550;2023-03-01T05:43:20;16.83;;;11.70;;
61915;SDS011;47868;51.326;6.550;2023-03-01T05:45:46;18.23;;;11.37;;
61915;SDS011;47868;51.326;6.550;2023-03-01T05:48:12;15.80;;;11.77;;
61915;SDS011;47868;51.326;6.550;2023-03-01T05:50:42;14.63;;;11.93;;
61915;SDS011;47868;51.326;6.550;2023-03-01T05:53:16;17.83;;;12.23;;
61915;SDS011;47868;51.326;6.550;2023-03-01T05:55:42;23.20;;;16.33;;
61915;SDS011;47868;51.326;6.550;2023-03-01T05:58:10;44.70;;;25.60;;
61915;SDS011;47868;51.326;6.550;2023-03-01T06:00:37;35.87;;;22.07;;
61915;SDS011;47868;51.326;6.550;2023-03-01T06:03:03;23.97;;;15.87;;
61915;SDS011;47868;51.326;6.550;2023-03-01T06:05:29;22.33;;;15.90;;
61915;SDS011;47868;51.326;6.550;2023-03-01T06:07:57;17.67;;;13.43;;
61915;SDS011;47868;51.326;6.550;2023-03-01T06:10:23;15.80;;;12.57;;
61915;SDS011;47868;51.326;6.550;2023-03-01T06:12:49;16.30;;;11.77;;
61915;SDS011;47868;51.326;6.550;2023-03-01T06:15:17;17.33;;;11.77;;
61915;SDS011;47868;51.326;6.550;2023-03-01T06:17:43;21.83;;;11.50;;
61915;SDS011;47868;51.326;6.550;2023-03-01T06:20:12;15.93;;;12.67;;
61915;SDS011;47868;51.326;6.550;2023-03-01T06:22:39;15.30;;;11.80;;
61915;SDS011;47868;51.326;6.550;2023-03-01T06:25:06;14.70;;;11.50;;
61915;SDS011;47868;51.326;6.550;2023-03-01T06:27:32;13.70;;;11.23;;
61915;SDS011;47868;51.326;6.550;2023-03-01T06:29:58;20.20;;;11.63;;
61915;SDS011;47868;51.326;6.550;2023-03-01T06:32:24;15.50;;;11.90;;
61915;SDS011;47868;51.326;6.550;2023-03-01T06:34:50;14.27;;;11.37;;
61915;SDS011;47868;51.326;6.550;2023-03-01T06:37:16;20.43;;;11.97;;
61915;SDS011;47868;51.326;6.550;2023-03-01T06:39:42;16.27;;;11.77;;
61915;SDS011;47868;51.326;6.550;2023-03-01T06:42:08;15.57;;;12.37;;
61915;SDS011;47868;51.326;6.550;2023-03-01T06:44:35;18.00;;;11.80;;
61915;SDS011;47868;51.326;6.550;2023-03-01T06:47:01;16.03;;;12.43;;
61915;SDS011;47868;51.326;6.550;2023-03-01T06:49:28;18.90;;;10.80;;
61915;SDS011;47868;51.326;6.550;2023-03-01T06:51:55;16.80;;;12.53;;
61915;SDS011;47868;51.326;6.550;2023-03-01T06:54:21;16.37;;;12.00;;
61915;SDS011;47868;51.326;6.550;2023-03-01T06:56:47;16.37;;;12.03;;
61915;SDS011;47868;51.326;6.550;2023-03-01T06:59:14;17.53;;;11.97;;
61915;SDS011;47868;51.326;6.550;2023-03-01T07:01:40;22.63;;;12.63;;
61915;SDS011;47868;51.326;6.550;2023-03-01T07:04:06;15.33;;;11.77;;
61915;SDS011;47868;51.326;6.550;2023-03-01T07:06:32;19.37;;;12.23;;
61915;SDS011;47868;51.326;6.550;2023-03-01T07:08:58;20.60;;;11.43;;
61915;SDS011;47868;51.326;6.550;2023-03-01T07:11:24;18.33;;;11.63;;
61915;SDS011;47868;51.326;6.550;2023-03-01T07:13:50;16.53;;;12.03;;
61915;SDS011;47868;51.326;6.550;2023-03-01T07:16:16;16.27;;;11.27;;
61915;SDS011;47868;51.326;6.550;2023-03-01T07:18:42;20.40;;;12.10;;
61915;SDS011;47868;51.326;6.550;2023-03-01T07:21:08;19.10;;;12.50;;
61915;SDS011;47868;51.326;6.550;2023-03-01T07:23:35;19.20;;;12.00;;
61915;SDS011;47868;51.326;6.550;2023-03-01T07:26:01;17.50;;;11.20;;
61915;SDS011;47868;51.326;6.550;2023-03-01T07:28:27;15.73;;;11.67;;
61915;SDS011;47868;51.326;6.550;2023-03-01T07:30:53;20.40;;;12.97;;
61915;SDS011;47868;51.326;6.550;2023-03-01T07:33:19;14.43;;;11.03;;
61915;SDS011;47868;51.326;6.550;2023-03-01T07:35:45;17.43;;;11.67;;
61915;SDS011;47868;51.326;6.550;2023-03-01T07:38:11;19.10;;;12.00;;
61915;SDS011;47868;51.326;6.550;2023-03-01T07:40:37;13.37;;;11.97;;
61915;SDS011;47868;51.326;6.550;2023-03-01T07:43:03;16.23;;;11.90;;
61915;SDS011;47868;51.326;6.550;2023-03-01T07:45:29;19.83;;;12.20;;
61915;SDS011;47868;51.326;6.550;2023-03-01T07:47:55;16.40;;;11.77;;
61915;SDS011;47868;51.326;6.550;2023-03-01T07:50:21;16.47;;;12.07;;
61915;SDS011;47868;51.326;6.550;2023-03-01T07:52:48;23.23;;;12.10;;
61915;SDS011;47868;51.326;6.550;2023-03-01T07:55:15;22.33;;;14.33;;
61915;SDS011;47868;51.326;6.550;2023-03-01T07:57:41;19.60;;;13.30;;
61915;SDS011;47868;51.326;6.550;2023-03-01T08:00:09;19.43;;;14.07;;
61915;SDS011;47868;51.326;6.550;2023-03-01T08:02:35;15.60;;;11.37;;
61915;SDS011;47868;51.326;6.550;2023-03-01T08:05:01;16.03;;;11.40;;
61915;SDS011;47868;51.326;6.550;2023-03-01T08:07:27;16.43;;;11.27;;
61915;SDS011;47868;51.326;6.550;2023-03-01T08:09:53;16.80;;;12.27;;
61915;SDS011;47868;51.326;6.550;2023-03-01T08:12:19;20.10;;;12.40;;
61915;SDS011;47868;51.326;6.550;2023-03-01T08:14:45;20.13;;;12.07;;
61915;SDS011;47868;51.326;6.550;2023-03-01T08:17:13;17.23;;;12.03;;
61915;SDS011;47868;51.326;6.550;2023-03-01T08:19:39;20.10;;;12.60;;
61915;SDS011;47868;51.326;6.550;2023-03-01T08:22:05;24.27;;;14.43;;
61915;SDS011;47868;51.326;6.550;2023-03-01T08:24:31;19.77;;;12.23;;
61915;SDS011;47868;51.326;6.550;2023-03-01T08:26:57;24.80;;;14.97;;
61915;SDS011;47868;51.326;6.550;2023-03-01T08:29:23;25.97;;;15.57;;
61915;SDS011;47868;51.326;6.550;2023-03-01T08:31:52;16.77;;;12.07;;
61915;SDS011;47868;51.326;6.550;2023-03-01T08:34:18;21.60;;;13.13;;
61915;SDS011;47868;51.326;6.550;2023-03-01T08:36:46;19.50;;;13.03;;
61915;SDS011;47868;51.326;6.550;2023-03-01T08:39:13;16.73;;;12.27;;
61915;SDS011;47868;51.326;6.550;2023-03-01T08:41:40;20.33;;;12.83;;
61915;SDS011;47868;51.326;6.550;2023-03-01T08:44:15;23.17;;;11.97;;
61915;SDS011;47868;51.326;6.550;2023-03-01T08:46:45;15.90;;;10.70;;
61915;SDS011;47868;51.326;6.550;2023-03-01T08:49:12;18.43;;;11.90;;
61915;SDS011;47868;51.326;6.550;2023-03-01T08:51:39;19.40;;;11.40;;
61915;SDS011;47868;51.326;6.550;2023-03-01T08:54:06;17.57;;;11.40;;
61915;SDS011;47868;51.326;6.550;2023-03-01T08:56:32;21.50;;;12.57;;
61915;SDS011;47868;51.326;6.550;2023-03-01T08:58:59;15.03;;;11.70;;
61915;SDS011;47868;51.326;6.550;2023-03-01T09:01:25;14.83;;;11.00;;
61915;SDS011;47868;51.326;6.550;2023-03-01T09:03:51;17.37;;;11.23;;
61915;SDS011;47868;51.326;6.550;2023-03-01T09:06:17;13.60;;;10.70;;
61915;SDS011;47868;51.326;6.550;2023-03-01T09:08:44;15.00;;;10.77;;
61915;SDS011;47868;51.326;6.550;2023-03-01T09:11:12;18.87;;;11.30;;
61915;SDS011;47868;51.326;6.550;2023-03-01T09:13:39;19.57;;;11.97;;
61915;SDS011;47868;51.326;6.550;2023-03-01T09:16:06;18.93;;;11.77;;
61915;SDS011;47868;51.326;6.550;2023-03-01T09:18:32;16.63;;;10.93;;
61915;SDS011;47868;51.326;6.550;2023-03-01T09:21:09;17.13;;;12.10;;
61915;SDS011;47868;51.326;6.550;2023-03-01T09:23:42;15.03;;;11.90;;
61915;SDS011;47868;51.326;6.550;2023-03-01T09:26:08;17.10;;;12.03;;
61915;SDS011;47868;51.326;6.550;2023-03-01T09:28:36;16.27;;;12.50;;
61915;SDS011;47868;51.326;6.550;2023-03-01T09:31:02;15.68;;;11.85;;
61915;SDS011;47868;51.326;6.550;2023-03-01T09:33:29;16.10;;;10.57;;
61915;SDS011;47868;51.326;6.550;2023-03-01T09:36:03;12.57;;;10.68;;
61915;SDS011;47868;51.326;6.550;2023-03-01T09:38:29;14.27;;;10.33;;
61915;SDS011;47868;51.326;6.550;2023-03-01T09:40:55;14.48;;;10.73;;
61915;SDS011;47868;51.326;6.550;2023-03-01T09:43:23;13.15;;;10.68;;
61915;SDS011;47868;51.326;6.550;2023-03-01T09:45:52;13.68;;;10.88;;
61915;SDS011;47868;51.326;6.550;2023-03-01T09:48:20;14.68;;;10.98;;
61915;SDS011;47868;51.326;6.550;2023-03-01T09:50:48;13.38;;;10.27;;
61915;SDS011;47868;51.326;6.550;2023-03-01T10:01:23;14.20;;;10.07;;
61915;SDS011;47868;51.326;6.550;2023-03-01T10:04:04;11.95;;;9.77;;
61915;SDS011;47868;51.326;6.550;2023-03-01T10:06:32;12.13;;;9.38;;
61915;SDS011;47868;51.326;6.550;2023-03-01T10:09:00;14.88;;;10.35;;
61915;SDS011;47868;51.326;6.550;2023-03-01T10:11:32;12.75;;;10.45;;
61915;SDS011;47868;51.326;6.550;2023-03-01T10:16:37;17.55;;;11.27;;
61915;SDS011;47868;51.326;6.550;2023-03-01T10:19:06;14.55;;;11.13;;
61915;SDS011;47868;51.326;6.550;2023-03-01T10:21:36;16.05;;;10.95;;
61915;SDS011;47868;51.326;6.550;2023-03-01T10:24:10;13.63;;;11.07;;
61915;SDS011;47868;51.326;6.550;2023-03-01T10:26:46;13.32;;;10.45;;
61915;SDS011;47868;51.326;6.550;2023-03-01T10:29:13;13.95;;;10.57;;
61915;SDS011;47868;51.326;6.550;2023-03-01T10:31:47;12.55;;;11.05;;
61915;SDS011;47868;51.326;6.550;2023-03-01T10:34:17;11.57;;;10.07;;
61915;SDS011;47868;51.326;6.550;2023-03-01T10:36:44;17.80;;;11.27;;
61915;SDS011;47868;51.326;6.550;2023-03-01T10:39:12;14.73;;;11.43;;
61915;SDS011;47868;51.326;6.550;2023-03-01T10:41:44;12.52;;;9.57;;
61915;SDS011;47868;51.326;6.550;2023-03-01T10:47:02;14.77;;;10.70;;
61915;SDS011;47868;51.326;6.550;2023-03-01T10:49:29;18.83;;;10.57;;
61915;SDS011;47868;51.326;6.550;2023-03-01T10:51:55;16.13;;;11.00;;
61915;SDS011;47868;51.326;6.550;2023-03-01T10:54:28;15.43;;;10.70;;
61915;SDS011;47868;51.326;6.550;2023-03-01T10:56:56;18.08;;;10.48;;
61915;SDS011;47868;51.326;6.550;2023-03-01T10:59:25;13.52;;;9.52;;
61915;SDS011;47868;51.326;6.550;2023-03-01T11:02:01;13.52;;;10.15;;
61915;SDS011;47868;51.326;6.550;2023-03-01T11:04:27;12.38;;;10.35;;
61915;SDS011;47868;51.326;6.550;2023-03-01T11:06:59;11.93;;;9.32;;
61915;SDS011;47868;51.326;6.550;2023-03-01T11:09:26;17.05;;;9.38;;
61915;SDS011;47868;51.326;6.550;2023-03-01T11:12:02;13.50;;;9.18;;
61915;SDS011;47868;51.326;6.550;2023-03-01T11:14:37;14.57;;;9.77;;
61915;SDS011;47868;51.326;6.550;2023-03-01T11:17:12;10.88;;;8.60;;
61915;SDS011;47868;51.326;6.550;2023-03-01T11:19:39;14.20;;;9.40;;
61915;SDS011;47868;51.326;6.550;2023-03-01T11:22:07;10.43;;;8.32;;
61915;SDS011;47868;51.326;6.550;2023-03-01T11:24:40;11.00;;;8.63;;
61915;SDS011;47868;51.326;6.550;2023-03-01T11:27:14;12.23;;;9.13;;
61915;SDS011;47868;51.326;6.550;2023-03-01T11:29:43;12.85;;;9.10;;
61915;SDS011;47868;51.326;6.550;2023-03-01T11:32:12;10.95;;;8.73;;
61915;SDS011;47868;51.326;6.550;2023-03-01T11:34:40;13.85;;;8.88;;
61915;SDS011;47868;51.326;6.550;2023-03-01T11:37:22;15.70;;;9.15;;
61915;SDS011;47868;51.326;6.550;2023-03-01T11:39:54;11.30;;;8.57;;
61915;SDS011;47868;51.326;6.550;2023-03-01T11:42:46;11.98;;;8.25;;
61915;SDS011;47868;51.326;6.550;2023-03-01T11:45:09;12.02;;;8.70;;
61915;SDS011;47868;51.326;6.550;2023-03-01T11:47:43;10.93;;;9.13;;
61915;SDS011;47868;51.326;6.550;2023-03-01T11:50:25;10.73;;;8.82;;
61915;SDS011;47868;51.326;6.550;2023-03-01T12:16:09;10.38;;;8.23;;
61915;SDS011;47868;51.326;6.550;2023-03-01T12:18:52;9.40;;;7.93;;
61915;SDS011;47868;51.326;6.550;2023-03-01T12:26:34;10.23;;;7.70;;
61915;SDS011;47868;51.326;6.550;2023-03-01T12:39:11;11.90;;;7.80;;
61915;SDS011;47868;51.326;6.550;2023-03-01T12:51:59;7.07;;;6.43;;
61915;SDS011;47868;51.326;6.550;2023-03-01T12:54:30;9.82;;;7.30;;
61915;SDS011;47868;51.326;6.550;2023-03-01T12:57:12;9.13;;;7.35;;
61915;SDS011;47868;51.326;6.550;2023-03-01T13:02:26;11.18;;;6.80;;
61915;SDS011;47868;51.326;6.550;2023-03-01T13:07:41;9.45;;;7.75;;
61915;SDS011;47868;51.326;6.550;2023-03-01T13:12:47;7.35;;;6.63;;
61915;SDS011;47868;51.326;6.550;2023-03-01T13:17:47;7.50;;;6.53;;
61915;SDS011;47868;51.326;6.550;2023-03-01T13:20:18;12.00;;;7.75;;
61915;SDS011;47868;51.326;6.550;2023-03-01T13:22:45;8.63;;;6.85;;
61915;SDS011;47868;51.326;6.550;2023-03-01T13:25:13;8.50;;;7.53;;
61915;SDS011;47868;51.326;6.550;2023-03-01T13:27:40;11.07;;;6.88;;
61915;SDS011;47868;51.326;6.550;2023-03-01T13:30:37;10.55;;;6.40;;
61915;SDS011;47868;51.326;6.550;2023-03-01T13:32:52;11.60;;;7.63;;
61915;SDS011;47868;51.326;6.550;2023-03-01T13:35:42;9.40;;;6.90;;
61915;SDS011;47868;51.326;6.550;2023-03-01T13:43:32;7.95;;;7.15;;
61915;SDS011;47868;51.326;6.550;2023-03-01T13:45:59;8.27;;;7.47;;
61915;SDS011;47868;51.326;6.550;2023-03-01T13:48:26;9.02;;;7.38;;
61915;SDS011;47868;51.326;6.550;2023-03-01T13:50:55;12.05;;;7.18;;
61915;SDS011;47868;51.326;6.550;2023-03-01T13:53:24;9.77;;;7.00;;
61915;SDS011;47868;51.326;6.550;2023-03-01T13:55:51;10.77;;;7.28;;
61915;SDS011;47868;51.326;6.550;2023-03-01T13:58:31;11.07;;;6.63;;
61915;SDS011;47868;51.326;6.550;2023-03-01T14:01:05;7.25;;;6.57;;
61915;SDS011;47868;51.326;6.550;2023-03-01T14:03:32;10.15;;;6.75;;
61915;SDS011;47868;51.326;6.550;2023-03-01T14:06:14;9.30;;;6.82;;
61915;SDS011;47868;51.326;6.550;2023-03-01T14:08:43;10.35;;;7.13;;
61915;SDS011;47868;51.326;6.550;2023-03-01T14:16:44;7.03;;;6.32;;
61915;SDS011;47868;51.326;6.550;2023-03-01T14:21:38;14.05;;;7.28;;
61915;SDS011;47868;51.326;6.550;2023-03-01T14:24:04;10.80;;;6.20;;
61915;SDS011;47868;51.326;6.550;2023-03-01T14:26:30;9.45;;;7.75;;
61915;SDS011;47868;51.326;6.550;2023-03-01T14:28:57;11.23;;;6.18;;
61915;SDS011;47868;51.326;6.550;2023-03-01T14:31:37;8.60;;;6.78;;
61915;SDS011;47868;51.326;6.550;2023-03-01T14:34:03;7.88;;;6.38;;
61915;SDS011;47868;51.326;6.550;2023-03-01T14:36:30;7.75;;;6.78;;
61915;SDS011;47868;51.326;6.550;2023-03-01T14:38:56;10.48;;;6.70;;
61915;SDS011;47868;51.326;6.550;2023-03-01T14:41:29;9.25;;;7.45;;
61915;SDS011;47868;51.326;6.550;2023-03-01T14:44:03;7.38;;;6.45;;
61915;SDS011;47868;51.326;6.550;2023-03-01T14:49:02;8.23;;;6.85;;
61915;SDS011;47868;51.326;6.550;2023-03-01T14:51:29;14.13;;;6.55;;
61915;SDS011;47868;51.326;6.550;2023-03-01T14:53:55;9.40;;;6.45;;
61915;SDS011;47868;51.326;6.550;2023-03-01T14:56:21;10.25;;;6.63;;
61915;SDS011;47868;51.326;6.550;2023-03-01T14:58:51;11.05;;;6.28;;
61915;SDS011;47868;51.326;6.550;2023-03-01T15:01:17;28.83;;;6.45;;
61915;SDS011;47868;51.326;6.550;2023-03-01T15:03:44;7.40;;;6.00;;
61915;SDS011;47868;51.326;6.550;2023-03-01T15:06:12;7.57;;;6.57;;
61915;SDS011;47868;51.326;6.550;2023-03-01T15:08:41;8.00;;;6.47;;
61915;SDS011;47868;51.326;6.550;2023-03-01T15:11:22;9.57;;;6.38;;
61915;SDS011;47868;51.326;6.550;2023-03-01T15:13:49;10.30;;;7.03;;
61915;SDS011;47868;51.326;6.550;2023-03-01T15:16:16;10.13;;;6.72;;
61915;SDS011;47868;51.326;6.550;2023-03-01T15:18:54;8.23;;;6.97;;
61915;SDS011;47868;51.326;6.550;2023-03-01T15:23:52;10.13;;;8.95;;
61915;SDS011;47868;51.326;6.550;2023-03-01T15:28:49;8.07;;;7.28;;
61915;SDS011;47868;51.326;6.550;2023-03-01T15:31:22;8.35;;;7.45;;
61915;SDS011;47868;51.326;6.550;2023-03-01T15:33:49;14.40;;;8.55;;
61915;SDS011;47868;51.326;6.550;2023-03-01T15:39:00;8.05;;;7.15;;
61915;SDS011;47868;51.326;6.550;2023-03-01T15:41:28;8.98;;;7.80;;
61915;SDS011;47868;51.326;6.550;2023-03-01T15:44:13;10.52;;;6.75;;
61915;SDS011;47868;51.326;6.550;2023-03-01T15:46:39;8.98;;;6.97;;
61915;SDS011;47868;51.326;6.550;2023-03-01T15:49:19;9.02;;;7.57;;
61915;SDS011;47868;51.326;6.550;2023-03-01T15:51:49;11.10;;;7.70;;
61915;SDS011;47868;51.326;6.550;2023-03-01T15:54:18;10.05;;;8.50;;
61915;SDS011;47868;51.326;6.550;2023-03-01T15:56:44;12.57;;;8.20;;
61915;SDS011;47868;51.326;6.550;2023-03-01T15:59:11;9.85;;;7.55;;
61915;SDS011;47868;51.326;6.550;2023-03-01T16:01:39;11.52;;;9.23;;
61915;SDS011;47868;51.326;6.550;2023-03-01T16:04:05;9.43;;;8.30;;
61915;SDS011;47868;51.326;6.550;2023-03-01T16:06:31;9.25;;;8.05;;
61915;SDS011;47868;51.326;6.550;2023-03-01T16:08:56;10.52;;;8.48;;
61915;SDS011;47868;51.326;6.550;2023-03-01T16:11:22;9.20;;;8.23;;
61915;SDS011;47868;51.326;6.550;2023-03-01T16:13:48;10.98;;;8.57;;
61915;SDS011;47868;51.326;6.550;2023-03-01T16:16:15;12.30;;;9.07;;